Time;durP1;ratioP1;P1;durP2;ratioP2;P2;SDS_P1;SDS_P2;PMS_P1;PMS_P2;Temp;Humidity;BMP_temperature;BMP_pressure;BME280_temperature;BME280_humidity;BME280_pressure;Samples;Min_cycle;Max_cycle;Signal;HPM_P1;HPM_P2
2023/09/16 00:01:55;;;;;;;10.18;7.30;;;13.70;99.90;;;;;;4993898;28;20674;-80
2023/09/16 00:04:23;;;;;;;9.65;6.65;;;13.60;99.90;;;;;;5010130;28;20510;-80
2023/09/16 00:06:50;;;;;;;11.90;7.80;;;13.60;99.90;;;;;;5011520;28;20047;-80
2023/09/16 00:09:17;;;;;;;10.88;7.55;;;13.60;99.90;;;;;;4990844;28;20043;-80
2023/09/16 00:11:43;;;;;;;11.88;7.50;;;13.50;99.90;;;;;;5006599;28;20085;-80
2023/09/16 00:14:10;;;;;;;12.68;8.05;;;13.50;99.90;;;;;;4990471;28;20062;-80
2023/09/16 00:16:37;;;;;;;11.60;7.57;;;13.50;99.90;;;;;;4997451;28;20047;-80
2023/09/16 00:19:04;;;;;;;13.18;7.50;;;13.50;99.90;;;;;;4994257;28;20050;-80
2023/09/16 00:21:32;;;;;;;10.50;7.63;;;13.40;99.90;;;;;;4994201;28;20050;-80
2023/09/16 00:23:59;;;;;;;12.50;7.88;;;13.40;99.90;;;;;;4993950;28;20134;-80
2023/09/16 00:26:27;;;;;;;12.85;8.05;;;13.30;99.90;;;;;;4993145;28;20050;-80
2023/09/16 00:28:53;;;;;;;11.20;8.20;;;13.30;99.90;;;;;;4993950;28;20503;-80
2023/09/16 00:31:20;;;;;;;12.38;8.07;;;13.30;99.90;;;;;;4993881;28;20042;-80
2023/09/16 00:33:49;;;;;;;12.50;7.70;;;13.30;99.90;;;;;;4993904;28;20038;-80
2023/09/16 00:36:15;;;;;;;11.50;7.93;;;13.20;99.90;;;;;;5026175;28;20085;-80
2023/09/16 00:38:42;;;;;;;11.27;7.38;;;13.20;99.90;;;;;;5009742;28;20526;-80
2023/09/16 00:41:09;;;;;;;12.85;7.10;;;13.10;99.90;;;;;;4990627;28;20105;-80
2023/09/16 00:43:36;;;;;;;11.25;7.78;;;13.10;99.90;;;;;;4974893;28;20173;-80
2023/09/16 00:46:02;;;;;;;10.95;7.90;;;13.10;99.90;;;;;;4976954;28;20046;-80
2023/09/16 00:48:29;;;;;;;11.15;8.00;;;13.10;99.90;;;;;;4978276;28;20507;-80
2023/09/16 00:50:56;;;;;;;12.93;8.20;;;13.10;99.90;;;;;;4978057;28;20133;-80
2023/09/16 00:53:26;;;;;;;11.75;8.43;;;13.00;99.90;;;;;;4978152;28;20046;-80
2023/09/16 00:55:53;;;;;;;12.05;7.90;;;13.00;99.90;;;;;;4978429;28;20051;-80
2023/09/16 00:58:20;;;;;;;13.13;8.50;;;13.00;99.90;;;;;;4981281;28;20482;-80
2023/09/16 01:00:47;;;;;;;12.18;8.73;;;13.00;99.90;;;;;;4997229;28;20422;-80
2023/09/16 01:03:15;;;;;;;10.98;8.18;;;12.90;99.90;;;;;;4997560;28;20046;-80
2023/09/16 01:05:45;;;;;;;11.63;8.15;;;12.90;99.90;;;;;;4997798;28;20038;-80
2023/09/16 01:08:12;;;;;;;12.23;7.50;;;12.90;99.90;;;;;;5013572;28;20052;-80
2023/09/16 01:10:40;;;;;;;11.43;8.20;;;12.90;99.90;;;;;;4981892;28;20037;-80
2023/09/16 01:13:08;;;;;;;11.73;8.27;;;12.90;99.90;;;;;;4997384;28;20125;-80
2023/09/16 01:16:17;;;;;;;12.65;8.43;;;12.80;99.90;;;;;;5016604;28;20112;-80
2023/09/16 01:18:53;;;;;;;12.63;7.93;;;12.80;99.90;;;;;;4938814;29;20048;-80
2023/09/16 01:21:22;;;;;;;11.32;8.07;;;12.80;99.90;;;;;;4935346;29;20512;-80
2023/09/16 01:24:08;;;;;;;13.07;8.73;;;12.80;99.90;;;;;;4962953;28;20105;-80
2023/09/16 01:26:35;;;;;;;10.90;7.80;;;12.70;99.90;;;;;;4983661;28;20077;-80
2023/09/16 01:29:02;;;;;;;12.43;9.07;;;12.70;99.90;;;;;;4980910;28;20084;-80
2023/09/16 01:31:29;;;;;;;13.15;9.30;;;12.70;99.90;;;;;;4980935;28;20064;-80
2023/09/16 01:33:58;;;;;;;14.05;8.90;;;12.70;99.90;;;;;;4996726;28;20046;-80
2023/09/16 01:36:30;;;;;;;11.70;8.95;;;12.70;99.90;;;;;;4996818;28;20046;-80
2023/09/16 01:39:03;;;;;;;12.70;8.80;;;12.70;99.90;;;;;;4996393;28;20045;-80
2023/09/16 01:41:33;;;;;;;11.88;8.88;;;12.70;99.90;;;;;;4996596;28;20145;-80
2023/09/16 01:44:02;;;;;;;15.52;9.98;;;12.60;99.90;;;;;;5012876;28;20439;-80
2023/09/16 01:46:29;;;;;;;15.35;9.77;;;12.70;99.90;;;;;;4996996;28;20105;-79
2023/09/16 01:48:56;;;;;;;14.82;9.90;;;12.70;99.90;;;;;;4980301;28;20491;-80
2023/09/16 01:51:24;;;;;;;14.80;10.73;;;12.70;99.90;;;;;;4997955;28;20487;-80
2023/09/16 01:53:51;;;;;;;14.23;9.85;;;12.70;99.90;;;;;;5012812;28;20042;-80
2023/09/16 01:56:18;;;;;;;15.13;10.27;;;12.70;99.90;;;;;;4979558;28;20047;-80
2023/09/16 01:58:44;;;;;;;13.95;10.43;;;12.70;99.90;;;;;;4980271;28;20423;-80
2023/09/16 02:01:11;;;;;;;13.73;10.70;;;12.70;99.90;;;;;;4996093;28;20042;-80
2023/09/16 02:03:38;;;;;;;14.20;10.32;;;12.70;99.90;;;;;;4996391;28;20047;-80
2023/09/16 02:06:07;;;;;;;14.82;10.23;;;12.70;99.90;;;;;;4995898;28;20495;-80
2023/09/16 02:08:34;;;;;;;14.80;10.20;;;12.70;99.90;;;;;;4980280;28;20502;-80
2023/09/16 02:11:01;;;;;;;14.95;10.02;;;12.70;99.90;;;;;;4980280;28;20042;-80
2023/09/16 02:13:28;;;;;;;14.77;10.35;;;12.70;99.90;;;;;;4980057;28;20065;-80
2023/09/16 02:15:54;;;;;;;15.07;10.73;;;12.60;99.90;;;;;;4996034;28;20046;-80
2023/09/16 02:18:21;;;;;;;15.88;11.10;;;12.60;99.90;;;;;;4980048;28;20034;-80
2023/09/16 02:20:48;;;;;;;14.32;10.13;;;12.60;99.90;;;;;;4980152;28;20492;-79
2023/09/16 02:23:14;;;;;;;15.80;10.50;;;12.60;99.90;;;;;;4980105;28;20038;-80
2023/09/16 02:25:41;;;;;;;15.05;10.52;;;12.70;99.90;;;;;;4979836;28;20039;-80
2023/09/16 02:28:08;;;;;;;15.20;10.25;;;12.60;99.90;;;;;;4980108;28;20479;-80
2023/09/16 02:30:34;;;;;;;15.23;10.75;;;12.60;99.90;;;;;;4980236;28;20069;-80
2023/09/16 02:33:02;;;;;;;16.52;10.90;;;12.70;99.90;;;;;;4995438;28;20535;-80
2023/09/16 02:35:29;;;;;;;16.70;12.02;;;12.60;99.90;;;;;;5015548;28;20133;-80
2023/09/16 02:37:57;;;;;;;14.13;10.38;;;12.70;99.90;;;;;;5015364;28;20810;-80
2023/09/16 02:40:24;;;;;;;16.08;10.77;;;12.60;99.90;;;;;;4998990;28;20041;-80
2023/09/16 02:42:50;;;;;;;19.52;11.18;;;12.60;99.90;;;;;;5015162;28;20406;-80
2023/09/16 02:45:17;;;;;;;15.23;10.90;;;12.70;99.90;;;;;;4998949;28;20041;-80
2023/09/16 02:47:44;;;;;;;16.40;10.88;;;12.60;99.90;;;;;;4980168;28;20039;-80
2023/09/16 02:50:11;;;;;;;16.25;10.85;;;12.70;99.90;;;;;;4979617;28;20045;-80
2023/09/16 02:52:38;;;;;;;15.93;11.05;;;12.60;99.90;;;;;;4995200;28;20042;-80
2023/09/16 02:55:05;;;;;;;15.77;11.23;;;12.60;99.90;;;;;;4979049;28;20046;-80
2023/09/16 02:57:31;;;;;;;14.95;10.50;;;12.60;99.90;;;;;;4995203;28;20035;-80
2023/09/16 02:59:59;;;;;;;14.57;10.95;;;12.60;99.90;;;;;;4979507;28;20210;-80
2023/09/16 03:02:26;;;;;;;14.48;10.65;;;12.60;99.90;;;;;;4979151;28;20042;-80
2023/09/16 03:04:52;;;;;;;18.02;11.57;;;12.60;99.90;;;;;;4994978;28;20471;-80
2023/09/16 03:07:19;;;;;;;15.88;11.80;;;12.60;99.90;;;;;;5012745;28;20513;-80
2023/09/16 03:09:46;;;;;;;16.90;11.98;;;12.60;99.90;;;;;;4978584;28;20380;-80
2023/09/16 03:12:12;;;;;;;16.80;12.23;;;12.50;99.90;;;;;;4978885;28;20136;-80
2023/09/16 03:14:39;;;;;;;14.48;11.10;;;12.60;99.90;;;;;;4978767;28;20050;-80
2023/09/16 03:17:06;;;;;;;17.77;11.95;;;12.60;99.90;;;;;;4978548;28;20046;-80
2023/09/16 03:19:32;;;;;;;16.90;11.20;;;12.50;99.90;;;;;;4998151;28;20084;-80
2023/09/16 03:21:59;;;;;;;17.08;11.45;;;12.50;99.90;;;;;;5014226;28;20719;-80
2023/09/16 03:24:26;;;;;;;19.05;11.60;;;12.50;99.90;;;;;;5014165;28;20446;-80
2023/09/16 03:26:53;;;;;;;16.88;11.98;;;12.50;99.90;;;;;;4998308;28;20038;-80
2023/09/16 03:29:20;;;;;;;15.32;11.52;;;12.50;99.90;;;;;;4997827;28;20044;-81
2023/09/16 03:31:46;;;;;;;15.35;11.20;;;12.50;99.90;;;;;;4998347;28;20058;-81
2023/09/16 03:34:13;;;;;;;18.52;11.82;;;12.50;99.90;;;;;;4997611;28;20124;-81
2023/09/16 03:36:39;;;;;;;17.98;12.20;;;12.50;99.90;;;;;;4997813;28;20491;-81
2023/09/16 03:39:06;;;;;;;18.25;11.50;;;12.50;99.90;;;;;;4998145;28;20030;-81
2023/09/16 03:41:33;;;;;;;17.17;12.13;;;12.50;99.90;;;;;;4998038;28;20073;-81
2023/09/16 03:44:00;;;;;;;16.02;11.90;;;12.50;99.90;;;;;;5030141;28;20038;-81
2023/09/16 03:46:26;;;;;;;16.38;11.73;;;12.50;99.90;;;;;;4997661;28;20045;-81
2023/09/16 03:48:53;;;;;;;18.50;12.35;;;12.50;99.90;;;;;;4997643;28;20042;-81
2023/09/16 03:51:20;;;;;;;16.85;12.35;;;12.50;99.90;;;;;;4997489;28;20056;-81
2023/09/16 03:53:47;;;;;;;17.45;12.13;;;12.50;99.90;;;;;;5013813;28;20038;-81
2023/09/16 03:56:14;;;;;;;16.60;12.45;;;12.50;99.90;;;;;;4997028;28;20088;-81
2023/09/16 03:58:40;;;;;;;17.80;12.48;;;12.50;99.90;;;;;;4997556;28;20124;-81
2023/09/16 04:01:07;;;;;;;17.73;11.82;;;12.50;99.90;;;;;;5013877;28;20041;-81
2023/09/16 04:03:34;;;;;;;18.40;12.65;;;12.50;99.90;;;;;;5013433;28;20048;-81
2023/09/16 04:06:03;;;;;;;15.80;11.60;;;12.40;99.90;;;;;;5029770;28;20049;-81
2023/09/16 04:08:31;;;;;;;16.75;11.20;;;12.40;99.90;;;;;;4997514;28;20045;-81
2023/09/16 04:10:57;;;;;;;18.02;12.60;;;12.50;99.90;;;;;;5013502;28;20143;-81
2023/09/16 04:13:24;;;;;;;17.25;12.55;;;12.40;99.90;;;;;;4997557;28;20495;-81
2023/09/16 04:15:51;;;;;;;15.85;11.77;;;12.40;99.90;;;;;;5011761;28;20046;-81
2023/09/16 04:18:18;;;;;;;17.13;11.23;;;12.40;99.90;;;;;;4997403;28;20034;-81
2023/09/16 04:20:47;;;;;;;16.25;11.52;;;12.40;99.90;;;;;;5034592;28;20042;-81
2023/09/16 04:23:14;;;;;;;16.23;11.32;;;12.30;99.90;;;;;;5003960;28;20856;-81
2023/09/16 04:25:40;;;;;;;17.27;11.95;;;12.30;99.90;;;;;;5013206;28;20132;-81
2023/09/16 04:28:07;;;;;;;16.08;12.35;;;12.30;99.90;;;;;;4984719;28;20065;-81
2023/09/16 04:30:40;;;;;;;20.40;11.73;;;12.30;99.90;;;;;;5016773;28;20094;-81
2023/09/16 04:33:09;;;;;;;16.55;12.20;;;12.30;99.90;;;;;;4984320;28;20096;-81
2023/09/16 04:35:42;;;;;;;18.35;12.15;;;12.30;99.90;;;;;;5000515;28;20084;-81
2023/09/16 04:38:09;;;;;;;18.35;12.90;;;12.30;99.90;;;;;;4984209;28;20116;-81
2023/09/16 04:40:35;;;;;;;16.15;12.10;;;12.20;99.90;;;;;;4999925;28;20042;-81
2023/09/16 04:43:03;;;;;;;13.98;11.00;;;12.20;99.90;;;;;;4984370;28;20080;-81
2023/09/16 04:45:31;;;;;;;16.48;12.25;;;12.20;99.90;;;;;;4984299;28;20039;-81
2023/09/16 04:47:58;;;;;;;16.75;12.77;;;12.20;99.90;;;;;;5000407;28;20045;-81
2023/09/16 04:50:25;;;;;;;16.70;12.23;;;12.20;99.90;;;;;;4983974;28;20053;-81
2023/09/16 04:52:52;;;;;;;17.98;12.80;;;12.20;99.90;;;;;;5016128;28;20114;-81
2023/09/16 04:55:20;;;;;;;19.67;12.68;;;12.10;99.90;;;;;;4999666;28;20058;-81
2023/09/16 04:57:46;;;;;;;18.08;12.43;;;12.10;99.90;;;;;;4983904;28;20502;-81
2023/09/16 05:00:13;;;;;;;19.65;12.68;;;12.10;99.90;;;;;;5000112;28;20136;-80
2023/09/16 05:02:40;;;;;;;17.50;12.40;;;12.10;99.90;;;;;;5002057;28;20045;-81
2023/09/16 05:05:07;;;;;;;17.98;12.93;;;12.10;99.90;;;;;;5019350;28;20407;-81
2023/09/16 05:07:34;;;;;;;16.50;12.52;;;12.10;99.90;;;;;;5014039;28;20054;-81
2023/09/16 05:10:00;;;;;;;20.42;13.73;;;12.10;99.90;;;;;;4996346;28;20049;-81
2023/09/16 05:12:27;;;;;;;17.55;12.50;;;12.10;99.90;;;;;;4984159;28;20069;-81
2023/09/16 05:14:54;;;;;;;16.23;11.93;;;12.10;99.90;;;;;;5001222;28;20046;-81
2023/09/16 05:17:21;;;;;;;15.80;12.25;;;12.10;99.90;;;;;;4986952;28;20050;-81
2023/09/16 05:19:47;;;;;;;18.55;12.32;;;12.10;99.90;;;;;;4999744;28;20038;-81
2023/09/16 05:22:14;;;;;;;16.30;12.05;;;12.10;99.90;;;;;;5000111;28;20120;-81
2023/09/16 05:24:41;;;;;;;18.98;12.40;;;12.10;99.90;;;;;;4999665;28;20084;-81
2023/09/16 05:27:07;;;;;;;16.83;12.18;;;12.10;99.90;;;;;;4999715;28;20042;-81
2023/09/16 05:29:34;;;;;;;18.45;12.88;;;12.10;99.90;;;;;;4999597;28;20053;-81
2023/09/16 05:32:01;;;;;;;16.42;11.98;;;12.10;99.90;;;;;;5004633;28;20446;-81
2023/09/16 05:34:27;;;;;;;17.70;12.90;;;12.10;99.90;;;;;;4980727;28;20043;-81
2023/09/16 05:36:54;;;;;;;17.08;12.77;;;12.10;99.90;;;;;;4980720;28;20030;-80
2023/09/16 05:39:21;;;;;;;18.50;13.55;;;12.10;99.90;;;;;;4980447;28;20043;-81
2023/09/16 05:41:49;;;;;;;18.02;13.10;;;12.10;99.90;;;;;;4980628;28;20073;-81
2023/09/16 05:44:20;;;;;;;17.13;13.77;;;12.10;99.90;;;;;;4981297;28;20042;-81
2023/09/16 05:46:47;;;;;;;20.05;13.70;;;12.10;99.90;;;;;;4980952;28;20073;-81
2023/09/16 05:49:14;;;;;;;22.70;14.13;;;12.20;99.90;;;;;;4980726;28;20842;-81
2023/09/16 05:51:42;;;;;;;19.13;14.43;;;12.20;99.90;;;;;;4980526;28;20161;-81
2023/09/16 05:54:09;;;;;;;20.20;14.73;;;12.20;99.90;;;;;;4980714;28;20046;-81
2023/09/16 05:56:38;;;;;;;19.10;14.10;;;12.20;99.90;;;;;;4980007;28;20041;-81
2023/09/16 05:59:06;;;;;;;18.60;13.27;;;12.30;99.90;;;;;;4980645;28;20045;-81
2023/09/16 06:01:35;;;;;;;17.25;13.10;;;12.30;99.90;;;;;;4980451;28;20385;-81
2023/09/16 06:04:02;;;;;;;16.45;12.93;;;12.30;99.90;;;;;;5012315;28;20037;-81
2023/09/16 06:06:29;;;;;;;18.33;13.30;;;12.30;99.90;;;;;;4996254;28;20503;-81
2023/09/16 06:08:56;;;;;;;18.77;13.63;;;12.40;99.90;;;;;;4980459;28;20097;-81
2023/09/16 06:11:26;;;;;;;18.60;13.65;;;12.40;99.90;;;;;;4980416;28;20085;-81
2023/09/16 06:13:53;;;;;;;17.90;13.77;;;12.40;99.90;;;;;;4984794;28;20046;-81
2023/09/16 06:16:20;;;;;;;18.73;12.82;;;12.50;99.90;;;;;;4980129;28;20519;-81
2023/09/16 06:18:46;;;;;;;20.25;14.55;;;12.50;99.90;;;;;;4980206;28;20093;-81
2023/09/16 06:21:15;;;;;;;18.33;13.65;;;12.60;99.90;;;;;;5011833;28;20043;-81
2023/09/16 06:23:42;;;;;;;22.73;14.45;;;12.60;99.90;;;;;;4995994;28;20050;-81
2023/09/16 06:26:10;;;;;;;18.75;13.85;;;12.70;99.90;;;;;;4995832;28;20100;-81
2023/09/16 06:28:41;;;;;;;21.13;14.88;;;12.70;99.90;;;;;;5002317;28;20038;-81
2023/09/16 06:31:08;;;;;;;21.45;14.90;;;12.80;99.90;;;;;;4996027;28;20034;-81
2023/09/16 06:33:34;;;;;;;24.60;14.65;;;12.80;99.90;;;;;;4995437;28;20046;-81
2023/09/16 06:36:01;;;;;;;20.48;14.65;;;12.90;99.90;;;;;;5008539;28;20063;-81
2023/09/16 06:38:28;;;;;;;19.48;14.45;;;13.00;99.90;;;;;;4995748;28;20088;-81
2023/09/16 06:40:54;;;;;;;21.92;15.15;;;13.00;99.90;;;;;;4979074;28;20035;-81
2023/09/16 06:43:23;;;;;;;23.17;15.00;;;13.10;99.90;;;;;;4979357;28;20045;-81
2023/09/16 06:45:49;;;;;;;20.35;14.40;;;13.20;99.90;;;;;;4979387;28;20411;-81
2023/09/16 06:48:16;;;;;;;19.60;14.32;;;13.30;99.90;;;;;;4979813;28;20054;-81
2023/09/16 06:50:43;;;;;;;21.50;15.15;;;13.40;99.90;;;;;;4979425;28;20050;-81
2023/09/16 06:53:10;;;;;;;22.05;15.68;;;13.40;99.90;;;;;;4979115;28;20447;-81
2023/09/16 06:55:37;;;;;;;21.08;14.77;;;13.50;99.90;;;;;;4988742;28;20131;-81
2023/09/16 06:58:06;;;;;;;21.80;15.20;;;13.60;99.90;;;;;;4998818;28;20038;-81
2023/09/16 07:00:33;;;;;;;18.15;14.00;;;13.60;99.90;;;;;;5011215;28;20470;-82
2023/09/16 07:03:00;;;;;;;20.38;15.15;;;13.70;99.90;;;;;;4979049;28;20053;-82
2023/09/16 07:05:29;;;;;;;20.02;14.20;;;13.80;99.90;;;;;;4978725;28;20050;-82
2023/09/16 07:07:56;;;;;;;18.92;14.18;;;13.90;99.90;;;;;;4995004;28;20044;-82
2023/09/16 07:10:23;;;;;;;22.00;14.75;;;14.00;99.90;;;;;;4994989;28;20093;-81
2023/09/16 07:12:50;;;;;;;20.63;15.20;;;14.10;99.90;;;;;;4994863;28;20483;-82
2023/09/16 07:15:19;;;;;;;21.42;14.80;;;14.10;99.90;;;;;;5000739;28;20093;-82
2023/09/16 07:17:46;;;;;;;20.67;14.65;;;14.20;99.90;;;;;;5023132;28;20097;-82
2023/09/16 07:20:12;;;;;;;18.92;14.63;;;14.30;99.90;;;;;;4984899;28;20058;-82
2023/09/16 07:22:39;;;;;;;19.13;13.75;;;14.50;99.90;;;;;;4983174;28;20039;-82
2023/09/16 07:25:06;;;;;;;19.63;14.02;;;14.60;99.90;;;;;;4990058;28;20407;-82
2023/09/16 07:27:33;;;;;;;19.20;13.75;;;14.70;99.90;;;;;;5016793;28;20034;-82
2023/09/16 07:30:00;;;;;;;20.42;14.38;;;14.80;99.90;;;;;;5006898;28;20045;-82
2023/09/16 07:32:27;;;;;;;18.35;13.95;;;14.90;99.90;;;;;;4991344;28;20548;-82
2023/09/16 07:34:54;;;;;;;24.75;14.65;;;15.00;99.90;;;;;;4975133;28;20404;-82
2023/09/16 07:37:21;;;;;;;19.48;13.75;;;15.10;99.90;;;;;;4991080;28;20042;-82
2023/09/16 07:39:50;;;;;;;17.77;12.88;;;15.20;99.90;;;;;;4990406;28;20045;-82
2023/09/16 07:42:16;;;;;;;18.30;12.43;;;15.40;99.90;;;;;;4975569;28;20121;-82
2023/09/16 07:44:43;;;;;;;17.77;12.20;;;15.60;99.90;;;;;;4974944;28;20519;-83
2023/09/16 07:47:10;;;;;;;18.40;12.45;;;15.80;99.90;;;;;;4974970;28;20053;-82
2023/09/16 07:49:36;;;;;;;19.52;11.80;;;15.90;99.90;;;;;;5009174;28;20038;-88
2023/09/16 07:52:03;;;;;;;15.95;11.70;;;16.00;99.90;;;;;;5010408;28;20038;-88
2023/09/16 07:54:31;;;;;;;17.98;11.45;;;16.20;99.90;;;;;;5011091;28;20046;-91
2023/09/16 07:56:57;;;;;;;15.90;11.02;;;16.20;99.90;;;;;;5011067;28;20050;-90
2023/09/16 07:59:25;;;;;;;16.00;11.10;;;16.30;99.90;;;;;;5010776;28;20177;-93
2023/09/16 08:01:52;;;;;;;18.27;11.10;;;16.30;99.90;;;;;;4993039;28;20046;-88
2023/09/16 08:04:19;;;;;;;15.55;11.05;;;16.30;99.90;;;;;;5011200;28;20061;-90
2023/09/16 08:06:49;;;;;;;16.52;10.63;;;16.40;99.90;;;;;;4995247;28;20042;-88
2023/09/16 08:09:17;;;;;;;15.13;10.73;;;16.60;99.90;;;;;;4994929;28;20129;-85
2023/09/16 08:11:43;;;;;;;16.08;10.80;;;16.60;99.90;;;;;;4994016;28;20069;-85
2023/09/16 08:14:10;;;;;;;15.52;10.70;;;16.70;99.90;;;;;;4994369;28;20066;-89
2023/09/16 08:16:37;;;;;;;15.43;11.00;;;16.90;99.90;;;;;;4980376;28;20058;-89
2023/09/16 08:19:03;;;;;;;13.52;10.38;;;17.00;99.90;;;;;;4975088;28;20078;-89
2023/09/16 08:21:36;;;;;;;17.33;11.25;;;17.10;99.90;;;;;;4975823;28;20041;-89
2023/09/16 08:24:03;;;;;;;15.00;10.48;;;17.20;99.90;;;;;;4975356;28;20046;-87
2023/09/16 08:26:30;;;;;;;13.15;10.63;;;17.20;99.90;;;;;;4975113;28;20049;-89
2023/09/16 08:28:56;;;;;;;15.15;10.30;;;17.20;99.90;;;;;;4990974;28;20118;-88
2023/09/16 08:31:23;;;;;;;14.73;10.75;;;17.20;99.90;;;;;;4975583;28;20046;-89
2023/09/16 08:33:50;;;;;;;15.20;11.27;;;17.20;99.90;;;;;;4975370;28;20066;-89
2023/09/16 08:36:17;;;;;;;14.48;10.40;;;17.30;99.90;;;;;;4975652;28;20050;-89
2023/09/16 08:38:44;;;;;;;13.00;10.50;;;17.50;99.90;;;;;;5007483;28;20118;-89
2023/09/16 08:41:26;;;;;;;14.85;10.88;;;17.50;99.90;;;;;;4975013;28;20046;-89
2023/09/16 08:43:54;;;;;;;14.07;10.45;;;17.60;99.90;;;;;;4990986;28;20049;-87
2023/09/16 08:46:23;;;;;;;14.48;10.65;;;17.60;99.90;;;;;;4975519;28;20054;-92
2023/09/16 08:48:54;;;;;;;14.48;11.20;;;17.60;99.90;;;;;;4991971;28;20122;-91
2023/09/16 08:51:21;;;;;;;16.02;10.43;;;17.70;99.90;;;;;;5009526;28;20491;-89
2023/09/16 08:53:51;;;;;;;14.48;11.00;;;17.70;99.90;;;;;;4993476;28;20096;-87
2023/09/16 08:56:18;;;;;;;14.73;10.43;;;17.70;99.90;;;;;;5009495;28;20053;-87
2023/09/16 08:58:45;;;;;;;16.27;10.85;;;17.90;99.90;;;;;;4993578;28;20076;-87
2023/09/16 09:01:16;;;;;;;14.82;10.68;;;18.00;99.90;;;;;;4993685;28;20469;-87
2023/09/16 09:03:42;;;;;;;13.63;10.50;;;18.10;99.90;;;;;;5009137;28;20494;-87
2023/09/16 09:06:12;;;;;;;14.50;10.52;;;18.40;99.90;;;;;;5009388;28;20092;-85
2023/09/16 09:08:39;;;;;;;13.98;9.77;;;18.50;99.90;;;;;;5029295;28;20154;-85
2023/09/16 09:11:10;;;;;;;13.13;10.02;;;18.70;99.90;;;;;;5012720;28;20133;-83
2023/09/16 09:13:37;;;;;;;13.68;9.75;;;18.80;99.90;;;;;;5013927;28;20082;-84
2023/09/16 09:16:04;;;;;;;14.55;10.80;;;19.00;99.90;;;;;;4999815;28;20538;-85
2023/09/16 09:18:33;;;;;;;14.05;9.45;;;19.20;99.90;;;;;;5000648;28;20034;-84
2023/09/16 09:21:00;;;;;;;11.93;9.15;;;19.20;99.90;;;;;;5016137;28;20570;-84
2023/09/16 09:23:29;;;;;;;23.92;9.68;;;19.40;99.90;;;;;;5000636;28;20048;-82
2023/09/16 09:25:57;;;;;;;11.55;8.93;;;19.50;99.90;;;;;;5009892;28;20482;-84
2023/09/16 09:28:25;;;;;;;11.60;8.98;;;19.60;99.90;;;;;;5001074;28;20048;-83
2023/09/16 09:30:52;;;;;;;12.73;9.15;;;19.70;99.90;;;;;;5012912;28;20499;-84
2023/09/16 09:33:20;;;;;;;14.02;9.10;;;19.80;99.90;;;;;;4996077;28;20057;-84
2023/09/16 09:35:47;;;;;;;11.05;8.68;;;19.80;99.90;;;;;;4996645;28;20115;-85
2023/09/16 09:38:14;;;;;;;11.32;8.55;;;19.80;99.90;;;;;;5003932;28;20038;-87
2023/09/16 09:40:57;;;;;;;11.75;8.07;;;19.90;99.90;;;;;;5013065;28;20034;-88
2023/09/16 09:43:27;;;;;;;14.60;9.15;;;20.00;99.90;;;;;;5016621;28;20053;-87
2023/09/16 09:45:54;;;;;;;12.40;7.57;;;20.10;99.90;;;;;;5013188;28;20069;-86
2023/09/16 09:48:21;;;;;;;10.32;7.75;;;20.10;99.90;;;;;;4986025;28;20038;-88
2023/09/16 09:50:49;;;;;;;11.57;7.68;;;20.10;99.90;;;;;;4994952;28;20073;-84
2023/09/16 09:53:16;;;;;;;10.52;7.25;;;20.20;99.90;;;;;;4987675;28;20100;-84
2023/09/16 09:55:43;;;;;;;10.52;7.22;;;20.30;99.90;;;;;;4984781;28;20121;-84
2023/09/16 09:58:10;;;;;;;11.05;7.40;;;20.40;99.90;;;;;;4980151;28;20044;-84
2023/09/16 10:00:49;;;;;;;11.73;7.70;;;20.50;99.90;;;;;;4992974;28;20406;-84
2023/09/16 10:03:18;;;;;;;11.43;7.68;;;20.60;99.90;;;;;;4996227;28;20039;-84
2023/09/16 10:05:45;;;;;;;13.10;7.53;;;20.60;99.90;;;;;;4995867;28;20050;-84
2023/09/16 10:08:13;;;;;;;11.35;7.85;;;20.70;99.90;;;;;;4979737;28;20856;-84
2023/09/16 10:10:40;;;;;;;8.77;6.95;;;20.80;99.90;;;;;;4996189;28;20046;-84
2023/09/16 10:13:09;;;;;;;10.98;7.10;;;20.90;99.90;;;;;;5006633;28;20073;-84
2023/09/16 10:15:38;;;;;;;10.30;7.30;;;21.00;99.90;;;;;;4988776;28;20054;-90
2023/09/16 10:18:06;;;;;;;10.55;7.55;;;21.00;99.90;;;;;;5014280;28;20115;-84
2023/09/16 10:20:38;;;;;;;11.23;6.97;;;21.00;99.90;;;;;;5013802;28;20505;-85
2023/09/16 10:23:05;;;;;;;11.93;7.03;;;21.10;99.90;;;;;;4999435;28;20099;-85
2023/09/16 10:25:34;;;;;;;9.20;7.03;;;21.30;99.90;;;;;;5014912;28;20042;-84
2023/09/16 10:28:04;;;;;;;11.93;7.45;;;21.40;99.90;;;;;;5000036;28;20042;-85
2023/09/16 10:30:33;;;;;;;11.10;7.70;;;21.70;99.90;;;;;;5014740;28;20054;-85
2023/09/16 10:33:01;;;;;;;10.77;7.15;;;21.70;99.90;;;;;;5013697;28;20044;-85
2023/09/16 10:35:33;;;;;;;9.48;6.88;;;21.90;99.90;;;;;;5021049;28;20082;-86
2023/09/16 10:38:01;;;;;;;10.93;7.53;;;21.90;99.90;;;;;;4995627;28;20038;-85
2023/09/16 10:40:28;;;;;;;9.50;7.00;;;22.00;99.90;;;;;;5005742;28;20462;-85
2023/09/16 10:42:56;;;;;;;10.68;7.53;;;22.10;99.90;;;;;;4995868;28;20042;-85
2023/09/16 10:45:25;;;;;;;9.40;7.25;;;22.10;99.90;;;;;;4990459;28;20466;-85
2023/09/16 10:47:53;;;;;;;10.98;6.88;;;22.10;99.90;;;;;;5002142;28;20063;-85
2023/09/16 10:50:25;;;;;;;9.18;6.28;;;22.20;99.90;;;;;;5014256;28;20080;-86
2023/09/16 10:52:58;;;;;;;10.15;6.40;;;22.30;99.90;;;;;;5009333;28;20041;-86
2023/09/16 10:55:29;;;;;;;8.27;6.25;;;22.20;99.90;;;;;;5011931;28;20045;-85
2023/09/16 10:58:09;;;;;;;8.23;5.90;;;22.20;99.90;;;;;;5011887;28;20121;-86
2023/09/16 11:00:40;;;;;;;10.43;6.88;;;22.20;99.90;;;;;;4999041;28;20038;-86
2023/09/16 11:03:13;;;;;;;10.98;6.30;;;22.20;99.90;;;;;;5014252;28;20115;-86
2023/09/16 11:05:40;;;;;;;11.13;5.97;;;22.30;99.90;;;;;;4998479;28;20049;-86
2023/09/16 11:08:07;;;;;;;9.60;7.10;;;22.30;99.90;;;;;;4995209;28;20443;-86
2023/09/16 11:10:35;;;;;;;10.52;7.13;;;22.30;99.90;;;;;;4999917;28;20092;-86
2023/09/16 11:13:03;;;;;;;10.45;7.32;;;22.40;99.90;;;;;;5010531;28;20121;-86
2023/09/16 11:15:34;;;;;;;9.63;7.90;;;22.40;99.90;;;;;;5023914;28;20124;-86
2023/09/16 11:18:07;;;;;;;11.02;7.22;;;22.60;99.90;;;;;;4994620;28;20123;-84
2023/09/16 11:20:37;;;;;;;8.68;6.63;;;22.60;99.90;;;;;;4994788;28;20046;-84
2023/09/16 11:23:05;;;;;;;8.07;5.10;;;22.70;99.90;;;;;;4994752;28;20472;-84
2023/09/16 11:25:37;;;;;;;7.55;5.22;;;22.80;99.90;;;;;;4994382;28;20046;-83
2023/09/16 11:28:08;;;;;;;9.40;6.00;;;22.80;99.90;;;;;;4994418;28;20046;-83
2023/09/16 11:30:36;;;;;;;9.18;6.72;;;22.90;99.90;;;;;;4993522;28;20414;-84
2023/09/16 11:33:08;;;;;;;10.52;7.38;;;22.90;99.90;;;;;;4999483;28;20047;-84
2023/09/16 11:35:40;;;;;;;10.73;6.50;;;22.90;99.90;;;;;;4995733;28;20053;-83
2023/09/16 11:38:07;;;;;;;9.45;6.72;;;23.00;99.90;;;;;;4998430;28;20046;-84
2023/09/16 11:40:34;;;;;;;8.60;6.38;;;23.00;99.90;;;;;;5013719;28;20038;-84
2023/09/16 11:43:01;;;;;;;10.32;7.05;;;23.00;99.90;;;;;;5013618;28;20506;-84
2023/09/16 11:45:28;;;;;;;8.40;5.78;;;23.00;99.90;;;;;;4997035;28;20140;-84
2023/09/16 11:47:55;;;;;;;10.02;7.13;;;23.10;99.90;;;;;;5000505;28;20513;-83
2023/09/16 11:50:26;;;;;;;10.00;7.45;;;23.10;99.90;;;;;;4994046;28;20081;-86
2023/09/16 11:52:53;;;;;;;10.27;6.80;;;23.20;99.90;;;;;;5010037;28;20046;-86
2023/09/16 11:55:20;;;;;;;13.48;7.32;;;23.20;99.90;;;;;;4993973;28;20101;-86
2023/09/16 11:57:48;;;;;;;8.93;6.47;;;23.30;99.90;;;;;;5000751;28;20031;-85
2023/09/16 12:00:15;;;;;;;10.05;6.50;;;23.30;99.90;;;;;;4979939;28;20049;-86
2023/09/16 12:02:43;;;;;;;9.18;6.18;;;23.40;99.90;;;;;;5010831;28;20042;-86
2023/09/16 12:05:11;;;;;;;9.18;6.55;;;23.50;99.90;;;;;;4994545;28;20411;-86
2023/09/16 12:07:38;;;;;;;9.13;6.45;;;23.50;99.90;;;;;;5012917;28;20044;-86
2023/09/16 12:10:06;;;;;;;12.73;6.75;;;23.60;99.90;;;;;;5013523;28;20044;-86
2023/09/16 12:12:33;;;;;;;8.57;6.45;;;23.50;99.90;;;;;;4981897;28;20391;-86
2023/09/16 12:15:01;;;;;;;7.55;5.60;;;23.60;99.90;;;;;;5009852;28;20081;-87
2023/09/16 12:17:28;;;;;;;9.52;6.78;;;23.50;99.90;;;;;;4995460;28;20097;-86
2023/09/16 12:19:56;;;;;;;9.45;6.32;;;23.60;99.90;;;;;;4996492;28;20120;-83
2023/09/16 12:22:24;;;;;;;9.50;6.43;;;23.60;99.90;;;;;;4987991;28;20088;-83
2023/09/16 12:24:57;;;;;;;8.38;6.15;;;23.60;99.90;;;;;;4993576;28;20544;-84
2023/09/16 12:27:25;;;;;;;8.65;5.00;;;23.60;99.90;;;;;;4993919;28;20860;-84
2023/09/16 12:29:51;;;;;;;5.95;4.10;;;23.50;99.90;;;;;;4977670;28;20042;-84
2023/09/16 12:32:21;;;;;;;6.47;4.00;;;23.50;99.90;;;;;;5008627;28;20197;-84
2023/09/16 12:35:09;;;;;;;7.30;3.67;;;23.60;99.90;;;;;;4978229;28;20160;-84
2023/09/16 12:37:37;;;;;;;5.05;3.40;;;23.60;99.90;;;;;;4977637;28;20069;-84